Terminal Aerodrome Forecast
Issued by NWS Blacksburg, VA

Current Version | Previous Version | Text Only | Print | Product List | Glossary Off
Versions: 1 2 3 4 5 6 7 8 9 10 11 12 13 14 15 16 17 18 19 20 21 22 23 24 25 26 27 28 29 30 31 32 33 34 35 36 37 38 39 40 41 42 43 44 45 46 47

000
FTUS41 KRNK 161746
TAFBLF
TAF
KBLF 161746Z 1618/1718 30005KT 5SM BR OVC004
     FM162100 30007KT 4SM BR SCT004 OVC008
     FM170200 32002KT 4SM BR BKN005
     FM171000 09002KT 2SM -DZ BR OVC004
     FM171600 14003KT P6SM SCT008 BKN012=

USA.gov is the U.S. government's official web portal to all federal, state and local government web resources and services.